createdAt,value
2022-12-03T00:04:57.732Z,114.40
2022-12-03T00:10:04.805Z,106.10
2022-12-03T00:15:13.420Z,90.40
2022-12-03T00:20:23.133Z,98.60
2022-12-03T00:25:30.354Z,95.50
2022-12-03T00:30:37.337Z,137.90
2022-12-03T00:35:44.175Z,132.50
2022-12-03T00:40:51.045Z,90.60
2022-12-03T00:45:57.964Z,112.50
2022-12-03T00:51:04.959Z,110.90
2022-12-03T00:56:13.642Z,103.10
2022-12-03T01:01:21.180Z,113.70
2022-12-03T01:06:28.504Z,139.20
2022-12-03T01:11:41.555Z,94.60
2022-12-03T01:16:49.380Z,110.30
2022-12-03T01:21:57.000Z,98.00
2022-12-03T01:27:03.863Z,108.20
2022-12-03T01:32:18.116Z,101.30
2022-12-03T01:37:27.244Z,91.20
2022-12-03T01:42:36.872Z,93.80
2022-12-03T01:47:43.848Z,100.80
2022-12-03T01:52:50.765Z,78.90
2022-12-03T01:58:00.652Z,85.00
2022-12-03T02:03:13.044Z,48.20
2022-12-03T02:08:34.744Z,90.60
2022-12-03T02:13:41.708Z,93.00
2022-12-03T02:18:49.049Z,98.00
2022-12-03T02:24:06.244Z,107.80
2022-12-03T02:29:13.476Z,101.20
2022-12-03T02:34:38.556Z,79.60
2022-12-03T02:39:48.716Z,80.50
2022-12-03T02:45:00.661Z,89.90
2022-12-03T02:50:13.495Z,110.80
2022-12-03T02:55:21.181Z,81.20
2022-12-03T03:00:28.216Z,100.00
2022-12-03T03:05:37.473Z,89.00
2022-12-03T03:10:45.629Z,77.40
2022-12-03T03:15:53.440Z,79.00
2022-12-03T03:21:00.307Z,106.30
2022-12-03T03:26:10.770Z,89.70
2022-12-03T03:31:22.702Z,84.50
2022-12-03T03:36:29.691Z,87.00
2022-12-03T03:41:38.082Z,92.30
2022-12-03T03:46:45.322Z,103.10
2022-12-03T03:51:52.375Z,133.10
2022-12-03T03:56:59.379Z,104.30
2022-12-03T04:02:06.279Z,117.80
2022-12-03T04:07:13.103Z,106.00
2022-12-03T04:12:37.621Z,83.20
2022-12-03T04:17:44.460Z,102.20
2022-12-03T04:22:51.369Z,100.70
2022-12-03T04:28:24.141Z,94.40
2022-12-03T04:33:48.904Z,120.70
2022-12-03T04:38:55.752Z,96.60
2022-12-03T04:44:19.496Z,89.50
2022-12-03T04:49:26.379Z,97.50
2022-12-03T04:54:33.439Z,103.20
2022-12-03T04:59:40.359Z,97.30
2022-12-03T05:04:47.306Z,117.00
2022-12-03T05:09:56.090Z,97.50
2022-12-03T05:15:02.975Z,111.20
2022-12-03T05:20:30.193Z,104.20
2022-12-03T05:25:37.083Z,101.20
2022-12-03T05:30:44.336Z,107.10
2022-12-03T05:35:51.219Z,76.40
2022-12-03T05:40:58.130Z,100.00
2022-12-03T05:46:05.030Z,118.90
2022-12-03T05:51:11.951Z,122.80
2022-12-03T05:56:18.862Z,111.90
2022-12-03T06:01:26.072Z,108.30
2022-12-03T06:06:33.011Z,98.50
2022-12-03T06:11:40.805Z,100.00
2022-12-03T06:16:47.691Z,117.50
2022-12-03T06:21:54.509Z,101.90
2022-12-03T06:27:01.368Z,133.00
2022-12-03T06:32:08.678Z,133.10
2022-12-03T06:37:15.710Z,106.70
2022-12-03T06:42:22.667Z,97.20
2022-12-03T06:47:29.577Z,112.60
2022-12-03T06:52:36.893Z,112.90
2022-12-03T06:57:43.775Z,104.10
2022-12-03T07:02:50.843Z,141.30
2022-12-03T07:07:57.765Z,119.60
2022-12-03T07:13:04.750Z,112.50
2022-12-03T07:18:11.593Z,114.30
2022-12-03T07:23:18.513Z,107.90
2022-12-03T07:28:25.453Z,112.10
2022-12-03T07:33:32.491Z,85.60
2022-12-03T07:38:39.611Z,112.60
2022-12-03T07:43:46.573Z,126.40
2022-12-03T07:48:53.618Z,112.00
2022-12-03T07:54:00.639Z,105.50
2022-12-03T07:59:07.578Z,114.40
2022-12-03T08:04:15.025Z,101.50
2022-12-03T08:09:21.940Z,103.50
2022-12-03T08:14:30.904Z,103.00
2022-12-03T08:19:37.780Z,94.80
2022-12-03T08:24:45.284Z,112.50
2022-12-03T08:29:55.298Z,104.30
2022-12-03T08:35:10.368Z,97.20
2022-12-03T08:40:34.634Z,93.50
2022-12-03T08:45:44.384Z,96.10
2022-12-03T08:50:51.462Z,99.40
2022-12-03T08:56:00.843Z,116.10
2022-12-03T09:01:26.122Z,119.10
2022-12-03T09:06:33.052Z,101.50
2022-12-03T09:11:40.569Z,111.30
2022-12-03T09:16:48.030Z,93.50
2022-12-03T09:21:55.565Z,87.00
2022-12-03T09:27:02.457Z,105.30
2022-12-03T09:32:13.689Z,93.70
2022-12-03T09:37:23.623Z,111.20
2022-12-03T09:42:30.630Z,109.60
2022-12-03T09:47:37.762Z,109.00
2022-12-03T09:52:45.318Z,91.80
2022-12-03T09:57:52.345Z,91.90
2022-12-03T10:03:03.108Z,102.20
2022-12-03T10:08:12.809Z,92.50
2022-12-03T10:13:26.065Z,109.90
2022-12-03T10:18:41.191Z,92.00
2022-12-03T10:23:55.182Z,102.70
2022-12-03T10:29:02.356Z,88.50
2022-12-03T10:34:10.201Z,96.00
2022-12-03T10:39:18.081Z,66.30
2022-12-03T10:49:33.068Z,82.80
2022-12-03T10:54:39.969Z,127.70
2022-12-03T10:59:47.126Z,110.80
2022-12-03T11:04:55.593Z,109.90
2022-12-03T11:10:02.861Z,89.30
2022-12-03T11:15:17.873Z,108.80
2022-12-03T11:21:06.672Z,81.00
2022-12-03T11:26:18.903Z,103.20
2022-12-03T11:31:42.053Z,74.30
2022-12-03T11:37:20.241Z,99.90
2022-12-03T11:42:41.858Z,102.30
2022-12-03T11:48:03.024Z,99.50
2022-12-03T11:53:18.103Z,91.00
2022-12-03T11:58:27.968Z,109.80
2022-12-03T12:03:37.345Z,99.20
2022-12-03T12:08:57.935Z,109.00
2022-12-03T12:14:05.844Z,111.20
2022-12-03T12:24:48.558Z,110.60
2022-12-03T12:29:58.212Z,96.80
2022-12-03T12:35:17.065Z,109.80
2022-12-03T12:40:26.944Z,114.90
2022-12-03T12:45:41.274Z,114.90
2022-12-03T12:50:50.029Z,116.40
2022-12-03T12:55:59.879Z,80.60
2022-12-03T13:01:13.649Z,116.80
2022-12-03T13:06:24.860Z,114.10
2022-12-03T13:11:41.365Z,112.60
2022-12-03T13:16:49.545Z,109.30
2022-12-03T13:21:58.133Z,106.10
2022-12-03T13:27:21.586Z,130.80
2022-12-03T13:32:32.533Z,129.60
2022-12-03T13:38:02.907Z,116.70
2022-12-03T13:43:15.460Z,111.40
2022-12-03T13:48:25.365Z,106.50
2022-12-03T13:53:41.258Z,113.10
2022-12-03T13:58:48.170Z,116.10
2022-12-03T14:03:55.272Z,123.50
2022-12-03T14:09:02.227Z,132.30
2022-12-03T14:14:09.217Z,109.60
2022-12-03T14:19:16.122Z,128.40
2022-12-03T14:24:22.996Z,118.20
2022-12-03T14:29:30.087Z,111.00
2022-12-03T14:34:36.957Z,115.60
2022-12-03T14:39:43.973Z,133.50
2022-12-03T14:44:52.399Z,129.10
2022-12-03T14:50:00.035Z,121.10
2022-12-03T14:55:07.538Z,105.10
2022-12-03T15:00:18.179Z,116.50
2022-12-03T15:05:28.821Z,117.00
2022-12-03T15:10:36.307Z,110.90
2022-12-03T15:15:43.506Z,127.20
2022-12-03T15:20:50.706Z,125.60
2022-12-03T15:25:57.660Z,108.60
2022-12-03T15:31:04.619Z,118.50
2022-12-03T15:36:12.273Z,107.90
2022-12-03T15:41:24.372Z,100.40
2022-12-03T15:46:32.200Z,105.20
2022-12-03T15:56:44.400Z,123.90
2022-12-03T16:01:51.493Z,130.00
2022-12-03T16:06:58.328Z,115.70
2022-12-03T16:12:05.717Z,116.40
2022-12-03T16:17:12.543Z,114.30
2022-12-03T16:22:19.611Z,118.40
2022-12-03T16:27:26.457Z,104.20
2022-12-03T16:32:33.317Z,124.80
2022-12-03T16:37:40.623Z,123.90
2022-12-03T16:42:47.681Z,119.30
2022-12-03T16:47:54.715Z,111.50
2022-12-03T16:53:01.722Z,120.60
2022-12-03T16:58:09.299Z,110.40
2022-12-03T17:03:17.975Z,106.00
2022-12-03T17:08:25.116Z,124.30
2022-12-03T17:13:31.985Z,112.70
2022-12-03T17:18:38.803Z,110.10
2022-12-03T17:23:48.957Z,112.30
2022-12-03T17:28:55.803Z,104.50
2022-12-03T17:34:02.727Z,121.50
2022-12-03T17:39:09.633Z,100.70
2022-12-03T17:44:20.980Z,114.20
2022-12-03T17:49:31.577Z,133.20
2022-12-03T17:55:08.526Z,124.10
2022-12-03T18:00:06.984Z,113.60
2022-12-03T18:05:19.465Z,109.20
2022-12-03T18:10:26.499Z,107.50
2022-12-03T18:15:34.033Z,123.80
2022-12-03T18:20:41.188Z,115.20
2022-12-03T18:25:48.064Z,132.70
2022-12-03T18:30:55.080Z,126.20
2022-12-03T18:36:02.006Z,124.50
2022-12-03T18:41:09.017Z,119.30
2022-12-03T18:46:45.109Z,115.20
2022-12-03T18:51:44.462Z,121.10
2022-12-03T18:56:51.517Z,127.10
2022-12-03T19:01:58.503Z,137.30
2022-12-03T19:07:05.419Z,130.40
2022-12-03T19:12:14.734Z,132.40
2022-12-03T19:17:22.619Z,122.00
2022-12-03T19:22:29.988Z,120.30
2022-12-03T19:27:36.965Z,124.50
2022-12-03T19:32:45.358Z,130.40
2022-12-03T19:37:52.413Z,159.70
2022-12-03T19:42:59.342Z,143.30
2022-12-03T19:48:06.692Z,131.10
2022-12-03T19:53:13.544Z,132.90
2022-12-03T19:58:20.407Z,133.70
2022-12-03T20:03:27.237Z,125.40
2022-12-03T20:08:37.392Z,136.70
2022-12-03T20:13:49.276Z,160.00
2022-12-03T20:19:02.191Z,150.80
2022-12-03T20:24:11.476Z,140.50
2022-12-03T20:29:18.378Z,140.40
2022-12-03T20:34:25.374Z,129.70
2022-12-03T20:39:32.674Z,131.80
2022-12-03T20:44:39.659Z,145.60
2022-12-03T20:49:46.582Z,171.20
2022-12-03T20:54:53.450Z,182.30
2022-12-03T21:00:00.370Z,157.60
2022-12-03T21:05:08.021Z,151.90
2022-12-03T21:10:29.264Z,158.50
2022-12-03T21:15:36.151Z,152.40
2022-12-03T21:20:43.912Z,133.50
2022-12-03T21:25:59.362Z,173.10
2022-12-03T21:31:12.624Z,165.60
2022-12-03T21:36:19.855Z,169.30
2022-12-03T21:41:29.788Z,151.90
2022-12-03T21:47:12.136Z,147.80
2022-12-03T21:52:03.569Z,169.20
2022-12-03T21:57:10.585Z,162.50
2022-12-03T22:02:17.530Z,193.50
2022-12-03T22:07:24.579Z,194.50
2022-12-03T22:12:31.786Z,174.00
2022-12-03T22:17:39.252Z,176.40
2022-12-03T22:22:46.531Z,170.50
2022-12-03T22:27:53.416Z,173.30
2022-12-03T22:33:00.275Z,201.80
2022-12-03T22:38:07.133Z,177.30
2022-12-03T22:43:13.986Z,177.90
2022-12-03T22:48:20.919Z,178.80
2022-12-03T22:53:27.781Z,171.30
2022-12-03T22:58:34.904Z,191.30
2022-12-03T23:03:41.836Z,196.80
2022-12-03T23:08:48.934Z,178.70
2022-12-03T23:13:56.412Z,186.10
2022-12-03T23:19:04.865Z,173.20
2022-12-03T23:24:12.810Z,178.40
2022-12-03T23:34:24.975Z,167.50
2022-12-03T23:39:31.926Z,190.50
2022-12-03T23:44:39.229Z,184.80
2022-12-03T23:49:46.141Z,174.90
2022-12-03T23:54:52.991Z,174.10
2022-12-03T23:59:59.871Z,158.60
